Time;durP1;ratioP1;P1;durP2;ratioP2;P2;SDS_P1;SDS_P2;PMS_P1;PMS_P2;Temp;Humidity;BMP_temperature;BMP_pressure;BME280_temperature;BME280_humidity;BME280_pressure;Samples;Min_cycle;Max_cycle;Signal;HPM_P1;HPM_P2
2022/03/09 00:00:26;;;;;;;3.33;2.57;;;3.10;99.90;;;;;;5007594;28;20291;-45
2022/03/09 00:02:53;;;;;;;4.27;2.73;;;3.20;99.90;;;;;;4993747;28;20233;-45
2022/03/09 00:05:20;;;;;;;2.30;2.10;;;3.10;99.90;;;;;;4999178;28;20210;-45
2022/03/09 00:07:47;;;;;;;4.67;2.40;;;3.10;99.90;;;;;;5013106;28;20413;-45
2022/03/09 00:10:14;;;;;;;3.63;2.30;;;3.00;99.90;;;;;;4999496;28;20213;-48
2022/03/09 00:12:42;;;;;;;3.03;2.53;;;3.00;99.90;;;;;;5010536;28;20775;-45
2022/03/09 00:15:10;;;;;;;4.20;2.60;;;3.10;99.90;;;;;;4998117;28;20277;-45
2022/03/09 00:17:37;;;;;;;2.77;2.27;;;3.10;99.90;;;;;;5007078;28;20516;-45
2022/03/09 00:20:05;;;;;;;3.57;2.73;;;3.00;99.90;;;;;;4983270;28;20229;-46
2022/03/09 00:22:32;;;;;;;4.03;2.80;;;3.00;99.90;;;;;;5002745;28;20470;-44
2022/03/09 00:24:59;;;;;;;3.57;2.30;;;2.90;99.90;;;;;;5009029;28;20314;-45
2022/03/09 00:27:25;;;;;;;4.83;2.40;;;2.80;99.90;;;;;;4994813;28;20356;-44
2022/03/09 00:29:54;;;;;;;3.47;2.40;;;2.80;99.90;;;;;;4994140;28;20288;-46
2022/03/09 00:32:21;;;;;;;3.27;2.27;;;2.80;99.90;;;;;;5015032;28;20262;-49
2022/03/09 00:34:47;;;;;;;3.63;2.40;;;2.80;99.90;;;;;;4991205;28;20217;-45
2022/03/09 00:37:14;;;;;;;3.97;2.80;;;2.70;99.90;;;;;;4991841;28;20316;-45
2022/03/09 00:39:41;;;;;;;4.47;2.60;;;2.50;99.90;;;;;;5005449;28;20216;-45
2022/03/09 00:42:08;;;;;;;6.93;2.60;;;2.50;99.90;;;;;;4999091;28;20238;-45
2022/03/09 00:44:35;;;;;;;3.87;2.63;;;2.40;99.90;;;;;;5017805;28;20243;-44
2022/03/09 00:47:04;;;;;;;4.50;2.43;;;2.30;99.90;;;;;;4986666;28;20205;-44
2022/03/09 00:49:31;;;;;;;4.97;2.63;;;2.40;99.90;;;;;;5004968;28;20569;-45
2022/03/09 00:51:58;;;;;;;2.73;2.20;;;2.40;99.90;;;;;;4978830;28;21036;-45
2022/03/09 00:54:25;;;;;;;6.50;2.83;;;2.50;99.90;;;;;;4999453;28;20235;-45
2022/03/09 00:56:52;;;;;;;7.93;2.87;;;2.60;99.90;;;;;;5007128;28;20241;-45
2022/03/09 00:59:19;;;;;;;3.53;2.60;;;2.50;99.90;;;;;;5011043;28;20888;-44
2022/03/09 01:01:45;;;;;;;3.87;2.50;;;2.30;99.90;;;;;;4992204;28;20559;-45
2022/03/09 01:04:14;;;;;;;4.93;2.57;;;2.30;99.90;;;;;;5009215;28;20241;-45
2022/03/09 01:06:40;;;;;;;3.47;2.33;;;2.50;99.90;;;;;;4998159;28;20324;-45
2022/03/09 01:09:07;;;;;;;5.43;2.70;;;2.60;99.90;;;;;;4992455;28;20300;-45
2022/03/09 01:11:34;;;;;;;3.80;2.40;;;2.60;99.90;;;;;;5016694;28;20248;-45
2022/03/09 01:14:01;;;;;;;4.47;2.90;;;2.70;99.90;;;;;;4986904;28;20291;-45
2022/03/09 01:16:28;;;;;;;3.87;2.60;;;2.60;99.90;;;;;;5011420;28;20815;-42
2022/03/09 01:18:55;;;;;;;3.50;2.70;;;2.60;99.90;;;;;;4994806;28;20234;-48
2022/03/09 01:21:23;;;;;;;4.77;2.47;;;2.50;99.90;;;;;;4984013;28;20214;-43
2022/03/09 01:23:50;;;;;;;2.93;2.47;;;2.50;99.90;;;;;;5000031;28;20292;-49
2022/03/09 01:26:17;;;;;;;5.20;2.50;;;2.60;99.90;;;;;;4999787;28;20237;-44
2022/03/09 01:28:44;;;;;;;3.97;2.20;;;2.60;99.90;;;;;;5001615;28;20226;-47
2022/03/09 01:31:11;;;;;;;5.43;2.80;;;2.50;99.90;;;;;;5007996;28;20290;-48
2022/03/09 01:33:37;;;;;;;3.97;2.60;;;2.50;99.90;;;;;;5001852;28;20312;-44
2022/03/09 01:36:05;;;;;;;6.37;2.33;;;2.50;99.90;;;;;;5011319;28;20854;-49
2022/03/09 01:38:33;;;;;;;4.27;2.60;;;2.40;99.90;;;;;;4983254;28;20212;-45
2022/03/09 01:41:00;;;;;;;5.10;2.50;;;2.40;99.90;;;;;;5002706;28;20282;-49
2022/03/09 01:43:27;;;;;;;4.97;2.60;;;2.50;99.90;;;;;;5000015;28;20239;-43
2022/03/09 01:45:54;;;;;;;3.07;2.33;;;2.40;99.90;;;;;;4992881;28;20288;-49
2022/03/09 01:48:21;;;;;;;3.37;2.40;;;2.40;99.90;;;;;;5003043;28;20234;-44
2022/03/09 01:50:47;;;;;;;4.00;2.60;;;2.30;99.90;;;;;;4996261;28;20204;-49
2022/03/09 01:53:15;;;;;;;3.70;2.20;;;2.30;99.90;;;;;;4994372;28;20335;-45
2022/03/09 01:55:43;;;;;;;3.93;2.13;;;2.20;99.90;;;;;;5008171;28;20283;-49
2022/03/09 01:58:10;;;;;;;3.90;2.80;;;2.20;99.90;;;;;;5004079;28;20228;-46
2022/03/09 02:00:37;;;;;;;4.07;2.70;;;2.20;99.90;;;;;;4996158;28;20639;-44
2022/03/09 02:03:04;;;;;;;4.03;2.10;;;2.20;99.90;;;;;;4986371;28;20225;-43
2022/03/09 02:05:31;;;;;;;4.33;3.10;;;2.10;99.90;;;;;;5005316;28;20243;-45
2022/03/09 02:10:44;;;;;;;3.40;2.67;;;2.10;99.90;;;;;;4993741;28;20241;-44
2022/03/09 02:13:11;;;;;;;2.73;2.30;;;2.20;99.90;;;;;;5004010;28;20350;-44
2022/03/09 02:15:38;;;;;;;4.43;2.80;;;2.10;99.90;;;;;;5001428;28;20211;-44
2022/03/09 02:18:05;;;;;;;3.90;2.40;;;2.10;99.90;;;;;;4987788;28;20350;-44
2022/03/09 02:20:37;;;;;;;3.90;2.73;;;2.10;99.90;;;;;;5015474;28;20209;-45
2022/03/09 02:23:05;;;;;;;2.53;2.13;;;2.20;99.90;;;;;;4998956;28;20228;-45
2022/03/09 02:25:32;;;;;;;4.60;2.30;;;2.10;99.90;;;;;;4999523;28;20283;-44
2022/03/09 02:28:02;;;;;;;4.47;2.47;;;2.10;99.90;;;;;;5008232;28;20234;-45
2022/03/09 02:30:28;;;;;;;5.03;2.90;;;2.10;99.90;;;;;;5006969;28;20211;-45
2022/03/09 02:32:55;;;;;;;2.83;2.40;;;2.00;99.90;;;;;;4991648;28;20231;-45
2022/03/09 02:35:22;;;;;;;4.50;2.83;;;2.10;99.90;;;;;;4993034;28;20292;-44
2022/03/09 02:37:49;;;;;;;7.47;2.93;;;2.10;99.90;;;;;;5014165;28;20236;-45
2022/03/09 02:40:18;;;;;;;6.17;2.50;;;1.90;99.90;;;;;;4995059;28;20541;-44
2022/03/09 02:42:45;;;;;;;4.40;2.50;;;1.80;99.90;;;;;;5012969;28;20235;-45
2022/03/09 02:45:13;;;;;;;7.13;3.23;;;1.70;99.90;;;;;;5001705;28;20219;-44
2022/03/09 02:47:41;;;;;;;5.03;2.70;;;1.60;99.90;;;;;;4986811;28;20324;-45
2022/03/09 02:50:09;;;;;;;5.03;2.80;;;1.50;99.90;;;;;;5009319;28;20222;-43
2022/03/09 02:52:39;;;;;;;4.80;2.50;;;1.60;99.90;;;;;;5003970;28;20231;-44
2022/03/09 02:55:06;;;;;;;4.83;2.97;;;1.60;99.90;;;;;;4998082;28;20215;-44
2022/03/09 02:57:35;;;;;;;5.83;3.20;;;1.70;99.90;;;;;;5013408;28;20570;-45
2022/03/09 03:00:02;;;;;;;6.17;2.50;;;1.70;99.90;;;;;;5010140;28;20211;-44
2022/03/09 03:02:29;;;;;;;7.43;3.00;;;1.70;99.90;;;;;;5004629;28;20251;-45
2022/03/09 03:04:56;;;;;;;4.90;3.10;;;1.60;99.90;;;;;;4997971;28;20208;-44
2022/03/09 03:07:22;;;;;;;4.27;2.80;;;1.50;99.90;;;;;;5010438;28;20533;-45
2022/03/09 03:09:49;;;;;;;4.07;3.07;;;1.60;99.90;;;;;;5005946;28;20222;-45
2022/03/09 03:12:16;;;;;;;4.63;2.70;;;1.60;99.90;;;;;;4996669;28;20331;-46
2022/03/09 03:14:44;;;;;;;3.97;2.77;;;1.70;99.90;;;;;;4998823;28;20243;-45
2022/03/09 03:17:11;;;;;;;4.17;3.10;;;1.80;99.90;;;;;;5008263;28;20207;-44
2022/03/09 03:19:39;;;;;;;7.87;2.93;;;1.80;99.90;;;;;;5008166;28;20237;-45
2022/03/09 03:22:06;;;;;;;3.60;2.70;;;1.80;99.90;;;;;;4992169;28;20256;-46
2022/03/09 03:24:33;;;;;;;4.40;2.90;;;1.80;99.90;;;;;;5015489;28;20213;-46
2022/03/09 03:26:59;;;;;;;4.33;2.87;;;1.90;99.90;;;;;;4996422;28;20219;-46
2022/03/09 03:29:26;;;;;;;7.27;2.93;;;1.70;99.90;;;;;;5002435;28;20302;-46
2022/03/09 03:31:55;;;;;;;8.47;2.80;;;1.70;99.90;;;;;;4999906;28;20262;-49
2022/03/09 03:37:44;;;;;;;3.53;2.80;;;1.50;99.90;;;;;;5001184;28;20205;-46
2022/03/09 03:40:11;;;;;;;6.77;3.10;;;1.40;99.90;;;;;;5010333;28;20731;-45
2022/03/09 03:42:38;;;;;;;5.03;2.43;;;1.30;99.90;;;;;;4982850;28;20268;-46
2022/03/09 03:45:06;;;;;;;4.73;2.87;;;1.40;99.90;;;;;;5010198;28;20288;-45
2022/03/09 03:47:34;;;;;;;5.07;2.80;;;1.50;99.90;;;;;;4994673;28;20752;-44
2022/03/09 03:50:01;;;;;;;4.23;2.80;;;1.50;99.90;;;;;;5003652;28;20231;-44
2022/03/09 03:52:28;;;;;;;3.47;2.60;;;1.40;99.90;;;;;;4990403;28;20226;-45
2022/03/09 03:54:55;;;;;;;3.67;2.80;;;1.30;99.90;;;;;;5012293;28;20219;-44
2022/03/09 03:57:22;;;;;;;5.00;3.00;;;1.30;99.90;;;;;;4993433;28;20219;-45
2022/03/09 03:59:49;;;;;;;3.50;2.63;;;1.20;99.90;;;;;;4999584;28;20208;-44
2022/03/09 04:02:15;;;;;;;4.37;2.83;;;1.20;99.90;;;;;;5008977;28;20421;-44
2022/03/09 04:04:44;;;;;;;4.23;3.00;;;1.10;99.90;;;;;;4990637;28;20211;-45
2022/03/09 04:07:11;;;;;;;4.53;2.93;;;1.20;99.90;;;;;;5002716;28;20605;-46
2022/03/09 04:09:37;;;;;;;4.33;2.97;;;1.20;99.90;;;;;;5002180;28;20545;-42
2022/03/09 04:12:05;;;;;;;4.83;3.30;;;1.10;99.90;;;;;;4993105;28;20473;-46
2022/03/09 04:14:32;;;;;;;4.43;2.77;;;1.00;99.90;;;;;;5013001;28;20207;-43
2022/03/09 04:16:59;;;;;;;4.30;2.90;;;1.00;99.90;;;;;;4985548;28;20209;-47
2022/03/09 04:19:26;;;;;;;6.37;3.43;;;0.90;99.90;;;;;;4998509;28;20803;-45
2022/03/09 04:21:54;;;;;;;4.30;3.10;;;0.80;99.90;;;;;;5015527;28;20248;-49
2022/03/09 04:24:21;;;;;;;4.40;2.73;;;0.80;99.90;;;;;;4986242;28;20832;-42
2022/03/09 04:26:48;;;;;;;4.70;2.90;;;0.80;99.90;;;;;;5010091;28;20288;-47
2022/03/09 04:29:15;;;;;;;4.70;2.90;;;0.70;99.90;;;;;;4996619;28;20495;-43
2022/03/09 04:31:42;;;;;;;8.70;2.90;;;0.60;99.90;;;;;;4999121;28;20304;-44
2022/03/09 04:34:10;;;;;;;4.13;3.10;;;0.60;99.90;;;;;;5013535;28;20555;-43
2022/03/09 04:36:37;;;;;;;3.50;2.80;;;0.60;99.90;;;;;;5001400;28;20542;-47
2022/03/09 04:39:06;;;;;;;4.13;3.27;;;0.70;99.90;;;;;;4993583;28;20675;-48
2022/03/09 04:41:34;;;;;;;4.37;3.07;;;0.70;99.90;;;;;;5011992;28;20984;-43
2022/03/09 04:44:01;;;;;;;5.47;3.10;;;0.80;99.90;;;;;;4995974;28;20420;-45
2022/03/09 04:46:28;;;;;;;4.90;3.33;;;0.80;99.90;;;;;;4997621;28;20240;-43
2022/03/09 04:48:55;;;;;;;8.70;3.00;;;0.70;99.90;;;;;;5005189;28;20227;-45
2022/03/09 04:51:21;;;;;;;5.50;3.10;;;0.70;99.90;;;;;;5000889;28;20399;-48
2022/03/09 04:53:48;;;;;;;5.47;3.67;;;0.70;99.90;;;;;;4996914;28;20314;-46
2022/03/09 04:56:17;;;;;;;9.53;3.33;;;0.60;99.90;;;;;;4988591;28;20223;-45
2022/03/09 04:58:45;;;;;;;11.83;3.20;;;0.60;99.90;;;;;;4997732;28;20214;-42
2022/03/09 05:01:12;;;;;;;4.23;2.90;;;0.60;99.90;;;;;;4996400;28;20938;-47
2022/03/09 05:03:39;;;;;;;9.00;3.13;;;0.60;99.90;;;;;;5008640;28;20263;-45
2022/03/09 05:06:06;;;;;;;4.63;2.87;;;0.60;99.90;;;;;;4999702;28;20543;-48
2022/03/09 05:08:34;;;;;;;4.57;3.50;;;0.60;99.90;;;;;;5006587;28;20559;-48
2022/03/09 05:11:01;;;;;;;7.90;3.27;;;0.50;99.90;;;;;;5001531;28;20284;-49
2022/03/09 05:13:29;;;;;;;4.47;3.23;;;0.50;99.90;;;;;;4999122;28;20725;-48
2022/03/09 05:15:56;;;;;;;5.33;3.17;;;0.60;99.90;;;;;;5003379;28;20282;-49
2022/03/09 05:18:22;;;;;;;9.60;3.67;;;0.60;99.90;;;;;;5002534;28;20714;-46
2022/03/09 05:20:49;;;;;;;5.47;3.40;;;0.50;99.90;;;;;;5014469;28;20205;-46
2022/03/09 05:23:16;;;;;;;5.00;3.07;;;0.40;99.90;;;;;;5003274;28;20308;-43
2022/03/09 05:25:43;;;;;;;6.10;3.87;;;0.40;99.90;;;;;;4988793;28;20582;-46
2022/03/09 05:28:10;;;;;;;5.13;3.20;;;0.40;99.90;;;;;;4997454;28;20216;-48
2022/03/09 05:30:38;;;;;;;5.93;3.60;;;0.40;99.90;;;;;;4992575;28;20232;-45
2022/03/09 05:33:05;;;;;;;7.30;3.60;;;0.40;99.90;;;;;;5012753;28;20301;-48
2022/03/09 05:35:32;;;;;;;5.10;3.40;;;0.40;99.90;;;;;;4982173;28;20218;-46
2022/03/09 05:37:59;;;;;;;7.50;3.17;;;0.30;99.90;;;;;;5004811;28;21191;-49
2022/03/09 05:40:25;;;;;;;7.00;3.50;;;0.50;99.90;;;;;;4992206;28;20200;-43
2022/03/09 05:42:52;;;;;;;8.97;3.30;;;0.30;99.90;;;;;;4999861;28;20291;-47
2022/03/09 05:45:19;;;;;;;5.87;3.50;;;0.30;99.90;;;;;;4993933;28;20415;-48
2022/03/09 05:47:48;;;;;;;7.70;3.60;;;0.40;99.90;;;;;;4992767;28;20204;-43
2022/03/09 05:50:14;;;;;;;5.13;3.27;;;0.30;99.90;;;;;;5000694;28;20249;-46
2022/03/09 05:52:41;;;;;;;9.40;3.40;;;0.30;99.90;;;;;;5004457;28;20296;-48
2022/03/09 05:55:09;;;;;;;5.57;3.60;;;0.20;99.90;;;;;;4989197;28;20296;-42
2022/03/09 05:57:36;;;;;;;7.97;3.83;;;0.20;99.90;;;;;;4999007;28;20322;-48
2022/03/09 06:00:06;;;;;;;5.37;3.63;;;0.30;99.90;;;;;;4993022;28;20207;-47
2022/03/09 06:02:33;;;;;;;7.40;3.50;;;0.20;99.90;;;;;;4988442;28;20233;-49
2022/03/09 06:05:01;;;;;;;6.57;3.70;;;0.30;99.90;;;;;;4986734;28;20464;-47
2022/03/09 06:07:28;;;;;;;6.17;3.90;;;0.30;99.90;;;;;;5013485;28;20585;-44
2022/03/09 06:09:55;;;;;;;10.13;4.10;;;0.20;99.90;;;;;;4987317;28;20333;-44
2022/03/09 06:12:22;;;;;;;8.20;4.07;;;0.30;99.90;;;;;;5000375;28;20605;-46
2022/03/09 06:14:49;;;;;;;5.73;3.83;;;0.20;99.90;;;;;;4978466;28;21013;-46
2022/03/09 06:17:16;;;;;;;14.47;4.30;;;0.20;99.90;;;;;;4996778;28;20216;-45
2022/03/09 06:19:42;;;;;;;26.20;4.33;;;0.20;99.90;;;;;;5002763;28;20209;-44
2022/03/09 06:22:11;;;;;;;10.27;4.00;;;0.20;99.90;;;;;;4995384;28;20236;-45
2022/03/09 06:24:37;;;;;;;6.87;3.77;;;0.30;99.90;;;;;;4999161;28;20286;-44
2022/03/09 06:27:05;;;;;;;6.40;4.27;;;0.20;99.90;;;;;;5000273;28;20223;-45
2022/03/09 06:29:32;;;;;;;6.80;4.37;;;0.30;99.90;;;;;;5010003;28;20227;-44
2022/03/09 06:32:00;;;;;;;5.60;3.73;;;0.30;99.90;;;;;;4994729;28;21032;-46
2022/03/09 06:34:27;;;;;;;8.37;4.27;;;0.30;99.90;;;;;;5006429;28;20220;-45
2022/03/09 06:36:54;;;;;;;9.83;3.93;;;0.30;99.90;;;;;;5012242;28;20306;-45
2022/03/09 06:39:24;;;;;;;10.87;3.77;;;0.30;99.90;;;;;;5008110;28;20501;-45
2022/03/09 06:41:50;;;;;;;5.17;3.57;;;0.30;99.90;;;;;;4996209;28;20652;-44
2022/03/09 06:44:17;;;;;;;8.97;4.17;;;0.30;99.90;;;;;;5009639;28;20300;-44
2022/03/09 06:46:44;;;;;;;7.23;4.03;;;0.40;99.90;;;;;;5013614;28;20214;-44
2022/03/09 06:49:11;;;;;;;5.73;3.43;;;0.50;99.90;;;;;;4968793;28;20217;-44
2022/03/09 06:51:38;;;;;;;7.97;4.10;;;0.50;99.90;;;;;;5012277;28;20235;-44
2022/03/09 06:54:05;;;;;;;9.10;3.70;;;0.50;99.90;;;;;;4994636;28;20218;-44
2022/03/09 06:56:33;;;;;;;6.83;3.87;;;0.60;99.90;;;;;;4976723;28;20576;-45
2022/03/09 06:59:00;;;;;;;10.07;4.23;;;0.60;99.90;;;;;;5008458;28;20213;-44
2022/03/09 07:01:27;;;;;;;9.60;4.17;;;0.60;99.90;;;;;;4997897;28;20457;-47
2022/03/09 07:03:54;;;;;;;8.23;3.90;;;0.70;99.90;;;;;;4995720;28;20208;-42
2022/03/09 07:06:21;;;;;;;7.67;4.00;;;0.70;99.90;;;;;;4988299;28;20214;-45
2022/03/09 07:08:47;;;;;;;7.17;4.33;;;0.80;99.90;;;;;;5014017;28;20227;-45
2022/03/09 07:11:14;;;;;;;7.93;4.50;;;0.90;99.90;;;;;;5006140;28;20272;-45
2022/03/09 07:13:42;;;;;;;12.83;4.40;;;0.90;99.90;;;;;;4982233;28;20337;-44
2022/03/09 07:16:09;;;;;;;12.40;4.63;;;1.00;99.90;;;;;;5020683;28;20242;-45
2022/03/09 07:18:36;;;;;;;11.57;4.60;;;1.10;99.90;;;;;;4996960;28;20285;-45
2022/03/09 07:21:03;;;;;;;6.43;4.00;;;1.20;99.90;;;;;;5002984;28;20281;-45
2022/03/09 07:23:30;;;;;;;6.30;3.90;;;1.30;99.90;;;;;;5003075;28;20605;-45
2022/03/09 07:25:57;;;;;;;7.53;4.77;;;1.40;99.90;;;;;;5012587;28;20230;-45
2022/03/09 07:28:24;;;;;;;9.60;4.67;;;1.50;99.90;;;;;;4982345;28;20214;-46
2022/03/09 07:30:52;;;;;;;6.13;4.00;;;1.50;99.90;;;;;;5011202;28;20306;-45
2022/03/09 07:33:19;;;;;;;5.93;4.00;;;1.70;99.90;;;;;;5008401;28;20432;-47
2022/03/09 07:35:46;;;;;;;13.43;4.07;;;1.80;99.90;;;;;;4983566;28;21257;-45
2022/03/09 07:38:14;;;;;;;5.23;4.00;;;1.90;99.90;;;;;;5017881;28;20281;-46
2022/03/09 07:40:41;;;;;;;12.27;4.63;;;2.00;99.90;;;;;;5016697;28;20230;-45
2022/03/09 07:43:07;;;;;;;7.37;4.60;;;2.10;99.90;;;;;;5004516;28;20231;-45
2022/03/09 07:45:35;;;;;;;9.47;4.33;;;2.20;99.90;;;;;;4996688;28;20544;-46
2022/03/09 07:48:03;;;;;;;6.73;4.33;;;2.30;99.90;;;;;;5014722;28;20401;-45
2022/03/09 07:50:31;;;;;;;7.83;4.37;;;2.40;99.90;;;;;;4988043;28;20599;-46
2022/03/09 07:52:58;;;;;;;5.77;3.87;;;2.50;99.90;;;;;;5015445;28;20231;-45
2022/03/09 07:55:25;;;;;;;7.13;4.33;;;2.50;99.90;;;;;;5004093;28;20266;-47
2022/03/09 07:57:52;;;;;;;13.97;4.77;;;2.60;99.90;;;;;;4994255;28;20212;-45
2022/03/09 08:00:19;;;;;;;7.27;4.23;;;2.70;99.90;;;;;;5010622;28;20537;-45
2022/03/09 08:02:46;;;;;;;6.17;4.17;;;2.80;99.90;;;;;;5017606;28;20605;-45
2022/03/09 08:05:14;;;;;;;9.37;4.83;;;2.80;99.90;;;;;;4993072;28;20391;-45
2022/03/09 08:07:41;;;;;;;6.10;3.87;;;2.90;99.90;;;;;;5011862;28;20521;-45
2022/03/09 08:10:09;;;;;;;8.30;4.60;;;3.00;99.90;;;;;;5016592;28;20243;-45
2022/03/09 08:12:37;;;;;;;7.50;4.30;;;3.10;99.90;;;;;;5017144;28;20445;-45
2022/03/09 08:15:04;;;;;;;10.70;4.53;;;3.20;99.90;;;;;;5007376;28;20220;-45
2022/03/09 08:17:31;;;;;;;9.67;4.47;;;3.30;99.90;;;;;;5004811;28;20485;-45
2022/03/09 08:19:58;;;;;;;19.97;4.23;;;3.30;99.90;;;;;;5006797;28;20501;-45
2022/03/09 08:22:26;;;;;;;8.60;4.77;;;3.40;99.90;;;;;;5010270;28;20230;-45
2022/03/09 08:24:53;;;;;;;4.90;3.70;;;3.50;99.90;;;;;;5007144;28;20354;-45
2022/03/09 08:27:20;;;;;;;6.53;4.13;;;3.60;99.90;;;;;;5019258;28;20248;-45
2022/03/09 08:29:47;;;;;;;12.10;4.47;;;3.60;99.90;;;;;;5007461;28;20662;-45
2022/03/09 08:32:14;;;;;;;9.37;4.37;;;3.70;99.90;;;;;;4994094;28;20482;-45
2022/03/09 08:34:41;;;;;;;7.60;4.57;;;3.80;99.90;;;;;;4985508;28;20323;-45
2022/03/09 08:37:08;;;;;;;7.97;4.50;;;3.90;99.90;;;;;;5023942;28;20206;-45
2022/03/09 08:39:36;;;;;;;6.03;4.47;;;4.00;99.90;;;;;;4999047;28;20233;-45
2022/03/09 08:42:03;;;;;;;8.83;4.83;;;4.10;99.90;;;;;;5023581;28;20524;-45
2022/03/09 08:44:30;;;;;;;6.73;4.57;;;4.20;99.90;;;;;;5013192;28;20205;-45
2022/03/09 08:46:57;;;;;;;9.13;5.10;;;4.30;99.90;;;;;;5009209;28;20497;-45
2022/03/09 08:49:23;;;;;;;7.07;4.50;;;4.40;99.90;;;;;;4994309;28;20285;-46
2022/03/09 08:51:50;;;;;;;6.53;4.20;;;4.50;99.90;;;;;;4996838;28;20500;-45
2022/03/09 08:54:17;;;;;;;8.77;4.27;;;4.60;99.90;;;;;;5016883;28;20202;-45
2022/03/09 08:56:45;;;;;;;13.80;4.93;;;4.70;99.90;;;;;;5006757;28;20615;-45
2022/03/09 08:59:12;;;;;;;7.30;4.50;;;4.70;99.90;;;;;;5018217;28;20441;-46
2022/03/09 09:01:39;;;;;;;7.83;4.20;;;4.80;99.90;;;;;;4993595;28;20534;-45
2022/03/09 09:04:06;;;;;;;5.80;4.33;;;4.90;99.90;;;;;;5010974;28;20504;-45
2022/03/09 09:06:32;;;;;;;7.27;4.50;;;5.00;99.90;;;;;;5002338;28;20447;-45
2022/03/09 09:08:59;;;;;;;10.87;4.50;;;5.10;99.90;;;;;;5014037;28;20282;-44
2022/03/09 09:11:26;;;;;;;7.17;4.40;;;5.20;99.90;;;;;;5006973;28;20230;-46
2022/03/09 09:13:54;;;;;;;7.23;4.10;;;5.20;99.90;;;;;;4999973;28;20207;-45
2022/03/09 09:16:21;;;;;;;9.27;4.60;;;5.30;99.90;;;;;;5014705;28;20411;-46
2022/03/09 09:18:48;;;;;;;6.30;4.30;;;5.40;99.90;;;;;;5003374;28;20236;-45
2022/03/09 09:21:16;;;;;;;12.40;4.60;;;5.50;99.90;;;;;;4988659;28;20244;-46
2022/03/09 09:23:42;;;;;;;8.77;4.70;;;5.50;99.90;;;;;;5007105;28;20575;-45
2022/03/09 09:26:09;;;;;;;8.67;4.40;;;5.60;99.90;;;;;;5007575;28;20221;-45
2022/03/09 09:28:36;;;;;;;7.90;4.33;;;5.70;99.90;;;;;;5020164;28;20474;-46
2022/03/09 09:31:04;;;;;;;7.90;4.37;;;5.70;99.90;;;;;;5009781;28;20434;-46
2022/03/09 09:33:31;;;;;;;7.97;4.67;;;5.80;99.90;;;;;;4999604;28;20432;-45
2022/03/09 09:35:58;;;;;;;13.53;4.43;;;5.90;99.90;;;;;;4998702;28;20787;-46
2022/03/09 09:38:25;;;;;;;6.73;4.40;;;6.00;99.90;;;;;;5008357;28;23279;-46
2022/03/09 09:40:55;;;;;;;6.47;4.43;;;6.10;99.90;;;;;;5000384;28;20203;-45
2022/03/09 09:43:23;;;;;;;5.93;3.90;;;6.20;99.90;;;;;;5019892;28;20413;-46
2022/03/09 09:45:50;;;;;;;7.50;4.47;;;6.20;99.90;;;;;;5019252;28;20461;-45
2022/03/09 09:48:19;;;;;;;6.03;4.10;;;6.30;99.90;;;;;;5004814;28;20208;-45
2022/03/09 09:50:47;;;;;;;7.77;4.43;;;6.50;99.90;;;;;;5002741;28;20224;-45
2022/03/09 09:53:16;;;;;;;13.00;4.00;;;6.50;99.90;;;;;;5006051;28;20578;-45
2022/03/09 09:55:43;;;;;;;11.90;4.80;;;6.60;99.90;;;;;;5004215;28;20851;-45
2022/03/09 09:58:10;;;;;;;10.27;4.03;;;6.70;99.90;;;;;;5013444;28;20220;-46
2022/03/09 10:00:37;;;;;;;7.40;3.60;;;6.80;99.90;;;;;;5007932;28;20201;-46
2022/03/09 10:03:05;;;;;;;8.37;4.13;;;6.80;99.90;;;;;;5015478;28;20302;-50
2022/03/09 10:05:34;;;;;;;5.53;3.87;;;7.00;99.90;;;;;;4996578;28;20205;-47
2022/03/09 10:08:13;;;;;;;6.17;3.60;;;7.10;99.90;;;;;;4997889;28;20312;-46
2022/03/09 10:10:43;;;;;;;8.47;3.90;;;7.10;99.90;;;;;;5017809;28;20331;-46
2022/03/09 10:13:11;;;;;;;8.10;3.87;;;7.20;99.90;;;;;;4997915;28;20612;-45
2022/03/09 10:15:38;;;;;;;9.97;4.40;;;7.30;99.90;;;;;;5018203;28;20322;-50
2022/03/09 10:18:23;;;;;;;6.80;4.67;;;7.30;99.90;;;;;;5004487;28;20201;-47
2022/03/09 10:20:51;;;;;;;6.23;4.77;;;7.40;99.90;;;;;;5003970;28;20300;-47
2022/03/09 10:23:21;;;;;;;8.77;5.43;;;7.50;99.90;;;;;;4997009;28;20231;-49
2022/03/09 10:25:48;;;;;;;14.07;6.20;;;7.50;99.90;;;;;;5017170;28;20406;-45
2022/03/09 10:28:16;;;;;;;11.70;5.70;;;7.50;99.90;;;;;;5006543;28;20210;-50
2022/03/09 10:30:44;;;;;;;10.73;5.87;;;7.50;99.90;;;;;;5012711;28;20531;-48
2022/03/09 10:33:12;;;;;;;12.37;6.93;;;7.60;99.90;;;;;;5018284;28;20268;-49
2022/03/09 10:35:43;;;;;;;10.97;5.50;;;7.60;99.90;;;;;;5013955;28;21044;-47
2022/03/09 10:38:24;;;;;;;6.90;4.50;;;7.70;99.90;;;;;;5004213;28;20222;-49
2022/03/09 10:40:55;;;;;;;10.83;5.83;;;7.70;99.90;;;;;;5012646;28;20198;-48
2022/03/09 10:43:24;;;;;;;9.53;4.43;;;7.80;99.90;;;;;;5013828;28;20275;-49
2022/03/09 10:46:01;;;;;;;6.77;4.47;;;8.00;99.90;;;;;;5003893;28;20290;-49
2022/03/09 10:48:48;;;;;;;7.67;5.73;;;8.10;99.90;;;;;;5015304;28;20341;-47
2022/03/09 10:51:29;;;;;;;7.10;4.53;;;8.00;99.90;;;;;;4995442;28;20226;-48
2022/03/09 10:53:59;;;;;;;14.60;4.20;;;8.00;99.90;;;;;;5003058;28;20490;-45
2022/03/09 10:56:26;;;;;;;6.80;4.07;;;8.10;99.90;;;;;;5009785;28;20381;-48
2022/03/09 10:58:53;;;;;;;9.00;4.60;;;8.10;99.90;;;;;;4997058;28;20565;-46
2022/03/09 11:01:23;;;;;;;9.57;5.63;;;8.10;99.90;;;;;;5016980;28;20206;-50
2022/03/09 11:03:51;;;;;;;8.30;4.63;;;8.20;99.90;;;;;;4988509;28;20552;-46
2022/03/09 11:06:18;;;;;;;11.50;5.10;;;8.30;99.90;;;;;;4988995;28;20210;-43
2022/03/09 11:08:45;;;;;;;6.10;4.17;;;8.30;99.90;;;;;;5001784;28;20210;-45
2022/03/09 11:11:14;;;;;;;9.47;5.27;;;8.40;99.90;;;;;;5016147;28;20271;-46
2022/03/09 11:13:41;;;;;;;8.30;5.30;;;8.50;99.90;;;;;;5013356;28;20252;-45
2022/03/09 11:16:08;;;;;;;13.03;6.70;;;8.50;99.90;;;;;;5012904;28;20197;-46
2022/03/09 11:18:36;;;;;;;11.17;4.90;;;8.50;99.90;;;;;;5020722;28;20687;-45
2022/03/09 11:21:06;;;;;;;9.23;4.07;;;8.60;99.90;;;;;;4991750;28;20227;-47
2022/03/09 11:23:35;;;;;;;10.37;4.97;;;8.60;99.90;;;;;;4997677;28;20261;-46
2022/03/09 11:26:05;;;;;;;9.37;4.87;;;8.70;99.90;;;;;;5022332;28;20224;-47
2022/03/09 11:28:36;;;;;;;6.53;4.47;;;8.70;99.90;;;;;;4997087;28;20533;-46
2022/03/09 11:31:05;;;;;;;10.03;5.00;;;8.70;99.90;;;;;;5023232;28;20229;-46
2022/03/09 11:33:42;;;;;;;8.03;4.17;;;8.70;99.90;;;;;;5023455;28;21072;-46
2022/03/09 11:36:34;;;;;;;5.93;4.50;;;8.70;99.90;;;;;;4999292;28;20214;-47
2022/03/09 11:39:24;;;;;;;8.17;4.60;;;8.80;99.90;;;;;;4998796;28;20214;-46
2022/03/09 11:42:26;;;;;;;13.90;7.03;;;8.80;99.90;;;;;;5019360;28;20222;-45
2022/03/09 11:44:56;;;;;;;14.33;4.43;;;8.80;99.90;;;;;;5007120;28;20517;-45
2022/03/09 11:47:23;;;;;;;9.23;4.60;;;8.90;99.90;;;;;;5010799;28;20561;-46
2022/03/09 11:50:07;;;;;;;8.70;5.23;;;8.90;99.90;;;;;;5019460;28;20402;-46
2022/03/09 11:52:33;;;;;;;8.63;4.43;;;8.90;99.90;;;;;;5010043;28;20411;-46
2022/03/09 11:55:05;;;;;;;6.60;4.77;;;8.90;99.90;;;;;;5011246;28;20218;-46
2022/03/09 11:58:09;;;;;;;6.90;4.80;;;8.90;99.90;;;;;;5007967;28;20211;-46
2022/03/09 12:00:38;;;;;;;9.53;5.10;;;8.90;99.90;;;;;;5012371;28;20208;-46
2022/03/09 12:03:05;;;;;;;10.70;4.90;;;8.90;99.90;;;;;;5020912;28;20222;-46
2022/03/09 12:05:42;;;;;;;5.67;4.40;;;8.90;99.90;;;;;;4995081;28;20310;-46
2022/03/09 12:08:11;;;;;;;7.10;4.27;;;8.90;99.90;;;;;;5017227;28;20239;-46
2022/03/09 12:10:55;;;;;;;6.57;4.60;;;9.00;99.90;;;;;;5002079;28;20241;-46
2022/03/09 12:13:35;;;;;;;5.70;3.93;;;9.10;99.90;;;;;;5016769;28;20479;-45
2022/03/09 12:16:24;;;;;;;7.40;4.70;;;9.20;99.90;;;;;;5012722;28;20564;-46
2022/03/09 12:19:13;;;;;;;7.73;4.93;;;9.40;99.90;;;;;;5008783;28;20475;-46
2022/03/09 12:22:03;;;;;;;7.27;4.00;;;9.30;99.90;;;;;;5010438;28;20249;-46
2022/03/09 12:24:33;;;;;;;7.53;4.00;;;9.30;99.90;;;;;;5009153;28;20451;-46
2022/03/09 12:27:00;;;;;;;4.77;4.07;;;9.30;99.90;;;;;;4989864;28;20237;-46
2022/03/09 12:29:39;;;;;;;5.47;3.87;;;9.30;99.90;;;;;;5019731;28;20554;-46
2022/03/09 12:32:10;;;;;;;5.37;4.00;;;9.30;99.90;;;;;;5011955;28;20508;-46
2022/03/09 12:34:39;;;;;;;4.70;3.90;;;9.40;99.90;;;;;;5015165;28;20310;-46
2022/03/09 12:37:08;;;;;;;6.40;4.03;;;9.30;99.90;;;;;;4988694;28;20976;-46
2022/03/09 12:39:36;;;;;;;5.97;3.63;;;9.30;99.90;;;;;;5011361;28;20425;-46
2022/03/09 12:42:04;;;;;;;5.70;3.77;;;9.30;99.90;;;;;;4956387;28;20218;-46
2022/03/09 12:44:33;;;;;;;6.30;3.87;;;9.40;99.90;;;;;;4989824;28;20316;-46
2022/03/09 12:47:03;;;;;;;5.83;4.10;;;9.50;99.90;;;;;;4998726;28;20207;-46
2022/03/09 12:49:34;;;;;;;5.20;3.93;;;9.40;99.90;;;;;;5000919;28;20448;-47
2022/03/09 12:52:04;;;;;;;5.40;3.80;;;9.50;99.90;;;;;;5000963;28;20241;-46
2022/03/09 12:54:43;;;;;;;7.87;4.00;;;9.60;99.90;;;;;;5001940;28;20220;-46
2022/03/09 12:57:15;;;;;;;5.13;3.40;;;9.60;99.90;;;;;;4981083;28;22354;-46
2022/03/09 12:59:54;;;;;;;6.07;3.93;;;9.50;99.90;;;;;;5009185;28;21303;-45
2022/03/09 13:02:23;;;;;;;5.50;3.47;;;9.60;99.90;;;;;;4997928;28;20227;-46
2022/03/09 13:04:58;;;;;;;4.50;3.43;;;9.60;99.90;;;;;;5015490;28;20210;-45
2022/03/09 13:07:25;;;;;;;5.57;3.73;;;9.60;99.90;;;;;;5009257;28;20514;-46